Time;durP1;ratioP1;P1;durP2;ratioP2;P2;SDS_P1;SDS_P2;PMS_P1;PMS_P2;Temp;Humidity;BMP_temperature;BMP_pressure;BME280_temperature;BME280_humidity;BME280_pressure;Samples;Min_cycle;Max_cycle;Signal;HPM_P1;HPM_P2
2021/01/18 00:00:30;;;;;;;42.17;26.50;;;0.70;98.30;;;;;;5178962;23;20204;-79
2021/01/18 00:02:32;;;;;;;37.95;25.67;;;0.70;98.30;;;;;;5169588;23;20284;-79
2021/01/18 00:04:34;;;;;;;43.00;26.23;;;0.70;98.30;;;;;;5168563;23;20292;-80
2021/01/18 00:06:38;;;;;;;38.50;24.10;;;0.70;98.30;;;;;;5176098;23;20680;-79
2021/01/18 00:08:40;;;;;;;39.53;26.67;;;0.70;98.30;;;;;;5176207;23;20212;-79
2021/01/18 00:10:42;;;;;;;39.63;26.45;;;0.70;98.30;;;;;;5175497;23;20292;-79
2021/01/18 00:17:10;;;;;;;39.22;25.40;;;0.70;98.30;;;;;;5117574;22;21125;-80
2021/01/18 00:19:21;;;;;;;40.13;26.85;;;0.70;98.30;;;;;;5175024;23;20197;-80
2021/01/18 00:21:37;;;;;;;43.25;26.35;;;0.70;98.30;;;;;;5167093;23;20205;-81
2021/01/18 00:23:49;;;;;;;39.55;26.35;;;0.70;98.30;;;;;;5156440;23;20212;-80
2021/01/18 00:25:57;;;;;;;38.53;25.40;;;0.70;98.30;;;;;;5150714;23;20290;-81
2021/01/18 00:27:59;;;;;;;40.75;26.67;;;0.80;98.30;;;;;;5151074;23;20209;-81
2021/01/18 00:30:24;;;;;;;40.42;27.42;;;0.70;98.30;;;;;;5149825;23;20590;-81
2021/01/18 00:35:16;;;;;;;38.55;27.10;;;0.80;98.30;;;;;;5148571;23;20206;-81
2021/01/18 00:37:31;;;;;;;42.05;26.70;;;0.80;98.30;;;;;;5151427;23;20591;-81
2021/01/18 00:39:44;;;;;;;;;;;;;;;;;;;;;
2021/01/18 00:41:52;;;;;;;38.97;27.38;;;0.80;98.30;;;;;;5148351;23;20202;-80
2021/01/18 00:43:55;;;;;;;42.72;27.88;;;0.90;98.30;;;;;;5141259;23;20205;-81
2021/01/18 00:45:58;;;;;;;38.88;25.45;;;0.90;98.30;;;;;;5150623;23;20202;-81
2021/01/18 00:48:10;;;;;;;42.83;28.70;;;0.80;98.30;;;;;;5152908;23;20590;-81
2021/01/18 00:50:27;;;;;;;41.72;27.80;;;0.70;98.30;;;;;;5151520;23;20202;-81
2021/01/18 00:52:40;;;;;;;43.03;25.90;;;0.70;98.30;;;;;;5153234;23;20720;-81
2021/01/18 00:54:47;;;;;;;44.50;27.65;;;0.70;98.30;;;;;;5153751;23;20221;-81
2021/01/18 00:56:50;;;;;;;43.60;29.25;;;0.70;98.30;;;;;;5155953;23;20201;-81
2021/01/18 00:58:53;;;;;;;41.85;28.02;;;0.70;98.30;;;;;;5146095;23;20233;-82
2021/01/18 01:00:55;;;;;;;45.22;28.10;;;0.70;98.30;;;;;;5154446;23;20623;-81
2021/01/18 01:03:01;;;;;;;45.88;28.65;;;0.70;98.30;;;;;;5154472;23;20622;-81
2021/01/18 01:05:06;;;;;;;46.70;29.13;;;0.60;98.30;;;;;;5155110;23;20206;-81
2021/01/18 01:07:09;;;;;;;46.97;30.27;;;0.60;98.30;;;;;;5154488;23;20276;-81
2021/01/18 01:09:18;;;;;;;43.17;28.58;;;0.60;98.30;;;;;;5145557;23;20778;-82
2021/01/18 01:11:28;;;;;;;48.03;29.48;;;0.60;98.30;;;;;;5153641;23;20280;-82
2021/01/18 01:13:34;;;;;;;43.97;27.17;;;0.50;98.30;;;;;;5152300;23;20202;-81
2021/01/18 01:15:50;;;;;;;47.35;30.10;;;0.50;98.30;;;;;;5152335;23;20205;-81
2021/01/18 01:18:03;;;;;;;46.17;27.55;;;0.60;98.30;;;;;;5150905;23;20268;-81
2021/01/18 01:20:45;;;;;;;;;;;;;;;;;;;;;
2021/01/18 01:23:02;;;;;;;47.40;31.40;;;0.60;98.30;;;;;;5150350;23;20630;-81
2021/01/18 01:25:21;;;;;;;41.38;28.27;;;0.70;98.30;;;;;;5150366;23;20205;-81
2021/01/18 01:27:59;;;;;;;46.85;29.48;;;0.70;98.30;;;;;;5143235;23;20215;-81
2021/01/18 01:30:34;;;;;;;44.28;29.10;;;0.80;98.30;;;;;;5051937;23;20209;-81
2021/01/18 01:32:41;;;;;;;43.67;30.13;;;0.70;98.30;;;;;;5149665;23;20222;-81
2021/01/18 01:35:00;;;;;;;46.22;29.35;;;0.60;98.30;;;;;;5150095;23;20197;-80
2021/01/18 01:37:24;;;;;;;49.75;31.15;;;0.60;98.30;;;;;;5150773;23;20213;-81
2021/01/18 01:39:36;;;;;;;50.15;30.65;;;0.60;98.30;;;;;;5150434;23;20278;-81
2021/01/18 01:41:45;;;;;;;47.13;29.33;;;0.70;98.30;;;;;;5150576;23;20205;-82
2021/01/18 01:43:55;;;;;;;47.43;30.30;;;0.70;98.30;;;;;;5151354;23;20720;-80
2021/01/18 01:46:04;;;;;;;48.78;29.63;;;0.70;98.30;;;;;;5152933;23;20215;-81
2021/01/18 01:48:26;;;;;;;;;;;;;;;;;;;;;
2021/01/18 01:53:33;;;;;;;51.33;30.13;;;0.70;98.30;;;;;;5138459;23;20213;-80
2021/01/18 01:55:38;;;;;;;50.20;30.73;;;0.60;98.30;;;;;;5162239;23;20221;-80
2021/01/18 01:58:32;;;;;;;46.85;28.83;;;0.70;98.30;;;;;;5162296;23;20205;-81
2021/01/18 02:00:47;;;;;;;50.13;31.77;;;0.70;98.30;;;;;;5107365;23;20677;-80
2021/01/18 02:02:59;;;;;;;48.95;31.30;;;0.60;98.30;;;;;;5159267;23;20632;-81
2021/01/18 02:05:21;;;;;;;50.38;29.70;;;0.60;98.30;;;;;;5156115;23;20216;-81
2021/01/18 02:07:31;;;;;;;49.63;30.65;;;0.60;98.30;;;;;;5152972;23;20215;-81
2021/01/18 02:09:33;;;;;;;54.45;32.80;;;0.70;98.30;;;;;;5150758;23;20264;-80
2021/01/18 02:11:38;;;;;;;54.10;33.67;;;0.60;98.30;;;;;;5150433;23;20202;-80
2021/01/18 02:14:12;;;;;;;58.33;33.38;;;0.70;98.30;;;;;;5151032;23;20204;-80
2021/01/18 02:16:32;;;;;;;54.30;33.42;;;0.80;98.30;;;;;;5150754;23;20290;-81
2021/01/18 02:18:56;;;;;;;61.03;35.10;;;0.70;98.30;;;;;;5149866;23;20213;-80
2021/01/18 02:21:38;;;;;;;57.78;32.17;;;0.70;98.30;;;;;;5150360;23;20209;-81
2021/01/18 02:24:19;;;;;;;56.15;32.70;;;0.70;98.30;;;;;;5147750;23;20197;-81
2021/01/18 02:26:41;;;;;;;55.63;34.00;;;0.70;98.30;;;;;;5149771;23;20216;-81
2021/01/18 02:29:04;;;;;;;64.57;35.58;;;0.80;98.30;;;;;;5150391;23;20613;-81
2021/01/18 02:31:37;;;;;;;59.15;34.53;;;0.60;98.30;;;;;;5150015;23;20201;-80
2021/01/18 02:37:23;;;;;;;55.65;34.42;;;0.60;98.30;;;;;;5136536;23;20277;-80
2021/01/18 02:40:11;;;;;;;61.55;38.95;;;0.70;98.30;;;;;;5151015;23;20654;-81
2021/01/18 02:45:16;;;;;;;59.28;36.13;;;0.80;98.30;;;;;;5143428;23;20962;-81
2021/01/18 02:47:22;;;;;;;66.65;37.53;;;0.70;98.30;;;;;;5151635;23;20288;-81
2021/01/18 02:49:32;;;;;;;61.08;37.22;;;0.80;98.30;;;;;;5151273;23;20198;-81
2021/01/18 02:51:39;;;;;;;63.95;36.03;;;0.70;98.30;;;;;;5142977;23;20206;-81
2021/01/18 02:53:54;;;;;;;66.35;39.30;;;0.70;98.30;;;;;;5143382;23;20209;-81
2021/01/18 02:55:57;;;;;;;65.35;36.85;;;0.70;98.30;;;;;;5151999;23;20229;-81
2021/01/18 02:58:06;;;;;;;64.97;37.53;;;0.70;98.30;;;;;;5152528;23;20198;-82
2021/01/18 03:00:13;;;;;;;65.72;38.97;;;0.80;98.30;;;;;;5153802;23;20263;-81
2021/01/18 03:02:35;;;;;;;68.75;37.50;;;0.80;98.30;;;;;;5153900;23;20228;-81
2021/01/18 03:04:55;;;;;;;73.28;39.53;;;0.90;98.30;;;;;;5153046;23;20266;-81
2021/01/18 03:07:01;;;;;;;69.00;37.00;;;1.00;98.30;;;;;;5154648;23;20224;-81
2021/01/18 03:17:52;;;;;;;66.15;36.97;;;1.00;98.30;;;;;;5072963;23;20722;-81
2021/01/18 03:20:19;;;;;;;76.68;38.88;;;0.90;98.30;;;;;;5014584;23;20207;-81
2021/01/18 03:22:30;;;;;;;77.50;39.33;;;0.90;98.30;;;;;;5073710;23;20585;-80
2021/01/18 03:24:34;;;;;;;82.18;41.30;;;0.90;98.30;;;;;;5073565;23;20658;-80
2021/01/18 03:26:36;;;;;;;85.10;39.40;;;0.90;98.30;;;;;;5073405;23;20212;-81
2021/01/18 03:28:49;;;;;;;77.88;41.60;;;0.90;98.30;;;;;;5073546;23;20210;-80
2021/01/18 03:30:53;;;;;;;76.78;41.08;;;0.90;98.30;;;;;;5073376;23;20307;-80
2021/01/18 03:33:04;;;;;;;86.63;39.42;;;0.90;98.30;;;;;;5072338;23;20289;-80
2021/01/18 03:35:10;;;;;;;78.18;39.25;;;0.90;98.30;;;;;;5073860;23;20211;-81
2021/01/18 03:37:14;;;;;;;85.72;41.53;;;1.00;98.30;;;;;;5076959;23;20234;-81
2021/01/18 03:39:16;;;;;;;105.18;43.83;;;1.00;98.30;;;;;;5076909;23;20215;-81
2021/01/18 03:41:20;;;;;;;84.13;41.95;;;1.00;98.30;;;;;;5076813;23;20208;-81
2021/01/18 03:43:33;;;;;;;101.95;41.92;;;1.00;98.30;;;;;;5112304;23;20205;-82
2021/01/18 03:48:49;;;;;;;;;;;;;;;;;;;;;
2021/01/18 03:51:18;;;;;;;119.80;45.30;;;1.00;98.30;;;;;;5156718;23;20215;-81
2021/01/18 03:53:52;;;;;;;98.85;44.17;;;1.00;98.30;;;;;;5152238;23;20208;-81
2021/01/18 04:02:22;;;;;;;106.32;44.72;;;1.10;98.30;;;;;;5090279;23;20197;-80
2021/01/18 04:04:36;;;;;;;134.55;48.47;;;1.10;98.30;;;;;;5154061;23;20738;-80
2021/01/18 04:06:41;;;;;;;113.72;44.20;;;1.10;98.30;;;;;;5151929;23;20241;-81
2021/01/18 04:08:52;;;;;;;140.65;48.42;;;1.10;98.30;;;;;;5149914;23;20194;-81
2021/01/18 04:11:13;;;;;;;;;;;;;;;;;;;;;
2021/01/18 04:14:27;;;;;;;149.75;52.05;;;1.20;98.30;;;;;;5065408;23;20933;-82
2021/01/18 04:16:55;;;;;;;131.88;47.13;;;1.10;98.30;;;;;;4998798;23;20246;-81
2021/01/18 04:18:57;;;;;;;137.88;49.72;;;1.20;98.30;;;;;;5064954;23;20312;-81
2021/01/18 04:21:03;;;;;;;113.47;44.63;;;1.20;98.30;;;;;;5065241;23;20208;-80
2021/01/18 04:23:05;;;;;;;126.80;48.28;;;1.20;98.30;;;;;;5073020;23;20461;-81
2021/01/18 04:25:09;;;;;;;145.45;47.58;;;1.20;98.30;;;;;;5074375;23;20719;-81
2021/01/18 04:27:11;;;;;;;128.98;44.85;;;1.20;98.30;;;;;;5074272;23;20214;-81
2021/01/18 04:29:41;;;;;;;117.15;43.83;;;1.20;98.30;;;;;;5065959;23;20215;-81
2021/01/18 04:34:54;;;;;;;217.32;48.85;;;1.20;98.30;;;;;;5071588;23;20204;-81
2021/01/18 04:37:34;;;;;;;127.47;39.75;;;1.20;98.30;;;;;;5072610;23;20204;-81
2021/01/18 04:39:51;;;;;;;132.95;38.35;;;1.20;98.30;;;;;;5072166;23;20288;-81
2021/01/18 04:42:08;;;;;;;139.85;39.25;;;1.20;98.30;;;;;;5065786;23;20351;-80
2021/01/18 04:44:13;;;;;;;168.18;42.47;;;1.30;98.30;;;;;;5091184;23;20205;-81
2021/01/18 04:46:19;;;;;;;193.90;44.00;;;1.30;98.30;;;;;;5152389;23;20205;-81
2021/01/18 04:48:25;;;;;;;201.85;45.92;;;1.30;98.30;;;;;;5152130;23;20210;-81
2021/01/18 04:50:42;;;;;;;189.35;42.50;;;1.30;98.30;;;;;;5152604;23;20202;-81
2021/01/18 04:52:51;;;;;;;178.93;45.22;;;1.30;98.30;;;;;;5152755;23;20642;-80
2021/01/18 04:54:55;;;;;;;165.80;42.70;;;1.20;98.30;;;;;;5152622;23;20215;-80
2021/01/18 04:57:20;;;;;;;183.82;40.58;;;1.20;98.30;;;;;;5152309;23;20198;-81
2021/01/18 04:59:29;;;;;;;157.27;41.55;;;1.20;98.30;;;;;;5150949;23;20212;-81
2021/01/18 05:01:40;;;;;;;219.82;47.85;;;1.20;98.30;;;;;;5150785;23;20213;-81
2021/01/18 05:03:47;;;;;;;222.98;44.65;;;1.30;98.30;;;;;;5151520;23;20216;-81
2021/01/18 05:06:19;;;;;;;147.50;40.80;;;1.30;98.30;;;;;;5150609;23;20210;-81
2021/01/18 05:09:05;;;;;;;198.32;44.45;;;1.20;98.30;;;;;;5151053;23;20293;-81
2021/01/18 05:11:12;;;;;;;239.63;47.95;;;1.30;98.30;;;;;;5115450;23;20520;-81
2021/01/18 05:13:19;;;;;;;254.25;50.38;;;1.20;98.30;;;;;;5151578;23;20235;-81
2021/01/18 05:15:23;;;;;;;174.80;37.63;;;1.30;98.30;;;;;;5150838;23;20232;-81
2021/01/18 05:17:42;;;;;;;202.65;40.50;;;1.30;98.30;;;;;;5142358;23;20214;-81
2021/01/18 05:19:46;;;;;;;208.07;44.10;;;1.30;98.30;;;;;;5150768;23;20204;-82
2021/01/18 05:21:49;;;;;;;282.70;50.65;;;1.30;98.30;;;;;;5150004;23;20285;-81
2021/01/18 05:23:56;;;;;;;193.02;43.53;;;1.30;98.30;;;;;;5149419;23;20209;-81
2021/01/18 05:26:31;;;;;;;141.73;34.85;;;1.40;98.30;;;;;;5149162;23;20212;-81
2021/01/18 05:28:48;;;;;;;260.27;45.08;;;1.40;98.30;;;;;;5148400;23;20212;-81
2021/01/18 05:30:59;;;;;;;209.30;43.65;;;1.40;98.30;;;;;;5149088;23;20282;-81
2021/01/18 05:33:27;;;;;;;200.15;45.67;;;1.30;98.30;;;;;;5147337;23;20260;-81
2021/01/18 05:36:11;;;;;;;230.95;45.72;;;1.40;98.30;;;;;;5147698;23;20661;-81
2021/01/18 05:38:56;;;;;;;194.45;42.80;;;1.40;98.30;;;;;;5138367;23;20213;-81
2021/01/18 05:41:11;;;;;;;430.63;75.13;;;1.40;98.30;;;;;;5149157;23;20206;-82
2021/01/18 05:43:36;;;;;;;300.10;57.47;;;1.40;98.30;;;;;;5148448;23;20201;-82
2021/01/18 05:46:01;;;;;;;189.85;42.45;;;1.40;98.30;;;;;;5147247;23;20514;-82
2021/01/18 05:48:06;;;;;;;368.85;64.70;;;1.40;98.30;;;;;;5141929;23;20226;-82
2021/01/18 05:50:34;;;;;;;230.18;45.63;;;1.40;98.30;;;;;;5149672;23;20212;-81
2021/01/18 05:53:41;;;;;;;189.88;41.40;;;1.40;98.30;;;;;;5149443;23;20668;-81
2021/01/18 05:56:27;;;;;;;133.05;37.45;;;1.40;98.30;;;;;;5119599;23;20244;-82
2021/01/18 05:58:43;;;;;;;144.88;36.97;;;1.40;98.30;;;;;;5142903;23;20217;-82
2021/01/18 06:01:35;;;;;;;102.45;33.40;;;1.50;98.30;;;;;;5151461;23;20664;-82
2021/01/18 06:03:38;;;;;;;103.22;35.70;;;1.60;98.30;;;;;;5149397;23;20540;-81
2021/01/18 06:05:41;;;;;;;189.40;44.10;;;1.50;98.30;;;;;;5149774;23;20228;-81
2021/01/18 06:07:43;;;;;;;122.68;33.80;;;1.60;98.30;;;;;;5149704;23;20216;-81
2021/01/18 06:09:52;;;;;;;300.08;53.72;;;1.60;98.30;;;;;;5149197;23;20664;-81
2021/01/18 06:11:55;;;;;;;222.02;47.38;;;1.50;98.30;;;;;;5149018;23;20201;-81
2021/01/18 06:14:06;;;;;;;50.92;24.63;;;1.50;98.30;;;;;;5150629;23;20208;-82
2021/01/18 06:16:15;;;;;;;63.60;25.02;;;1.50;98.30;;;;;;5150617;23;20209;-82
2021/01/18 06:18:17;;;;;;;50.63;24.60;;;1.50;98.30;;;;;;5149908;23;20201;-81
2021/01/18 06:20:21;;;;;;;60.53;27.55;;;1.50;98.30;;;;;;5150314;23;20237;-81
2021/01/18 06:24:52;;;;;;;54.55;25.58;;;1.60;98.30;;;;;;5154903;23;20211;-81
2021/01/18 06:26:56;;;;;;;82.13;27.38;;;1.60;98.30;;;;;;5147254;23;20205;-81
2021/01/18 06:32:07;;;;;;;;;;;;;;;;;;;;;
2021/01/18 06:34:31;;;;;;;179.50;37.53;;;1.70;98.30;;;;;;5151030;23;20276;-82
2021/01/18 06:36:44;;;;;;;121.18;32.22;;;1.70;98.30;;;;;;5150474;23;20296;-81
2021/01/18 06:39:08;;;;;;;110.70;29.35;;;1.70;98.30;;;;;;5150398;23;20221;-82
2021/01/18 06:41:11;;;;;;;156.43;34.90;;;1.70;98.30;;;;;;5150952;23;20730;-81
2021/01/18 06:43:23;;;;;;;134.65;32.65;;;1.70;98.30;;;;;;5149751;23;20197;-81
2021/01/18 06:45:36;;;;;;;228.63;43.25;;;1.60;98.30;;;;;;5149968;23;20597;-82
2021/01/18 06:47:49;;;;;;;141.48;33.08;;;1.70;98.30;;;;;;5150552;23;20237;-81
2021/01/18 06:50:03;;;;;;;202.85;39.83;;;1.70;98.30;;;;;;5150243;23;20206;-80
2021/01/18 06:52:22;;;;;;;301.05;47.15;;;1.70;98.30;;;;;;5150533;23;20198;-80
2021/01/18 06:54:29;;;;;;;293.00;46.15;;;1.70;98.30;;;;;;5148866;23;20201;-80
2021/01/18 06:57:02;;;;;;;184.20;37.38;;;1.80;98.30;;;;;;5150455;23;20197;-80
2021/01/18 06:59:11;;;;;;;248.88;44.22;;;1.80;98.30;;;;;;5150363;23;20225;-80
2021/01/18 07:01:20;;;;;;;183.80;36.53;;;1.80;98.30;;;;;;5151577;23;20213;-80
2021/01/18 07:03:40;;;;;;;354.27;60.42;;;1.80;98.30;;;;;;5160986;23;20213;-80
2021/01/18 07:05:47;;;;;;;157.65;33.85;;;1.80;98.30;;;;;;5150672;23;20259;-80
2021/01/18 07:07:55;;;;;;;113.18;27.27;;;1.80;98.30;;;;;;5151342;23;20206;-81
2021/01/18 07:09:59;;;;;;;136.20;30.35;;;1.90;98.30;;;;;;5143999;23;20525;-80
2021/01/18 07:12:03;;;;;;;179.50;35.53;;;1.80;98.30;;;;;;5151471;23;20209;-79
2021/01/18 07:14:09;;;;;;;194.30;38.35;;;1.80;98.30;;;;;;5151171;23;20641;-80
2021/01/18 07:16:13;;;;;;;177.77;36.63;;;1.90;98.30;;;;;;5151650;23;20258;-80
2021/01/18 07:18:16;;;;;;;172.93;37.38;;;1.90;98.30;;;;;;5150434;23;20206;-79
2021/01/18 07:20:27;;;;;;;130.82;27.75;;;1.90;98.30;;;;;;5150694;23;20210;-80
2021/01/18 07:22:57;;;;;;;166.32;34.30;;;1.90;98.30;;;;;;5151631;23;20206;-80
2021/01/18 07:25:02;;;;;;;175.02;33.35;;;1.90;98.30;;;;;;5152224;23;20212;-81
2021/01/18 07:27:16;;;;;;;163.45;33.88;;;1.90;98.30;;;;;;5152012;23;20236;-80
2021/01/18 07:29:57;;;;;;;175.82;33.22;;;1.90;98.30;;;;;;5141353;23;20209;-81
2021/01/18 07:32:11;;;;;;;100.82;25.65;;;1.90;98.30;;;;;;5144177;23;20206;-80
2021/01/18 07:34:18;;;;;;;175.90;34.42;;;1.90;98.30;;;;;;5151443;23;20646;-80
2021/01/18 07:36:25;;;;;;;171.15;33.55;;;1.90;98.30;;;;;;5152284;23;20201;-82
2021/01/18 07:38:37;;;;;;;193.50;37.88;;;1.90;98.30;;;;;;5151964;23;20556;-81
2021/01/18 07:40:40;;;;;;;202.35;39.88;;;1.90;98.30;;;;;;5152568;23;20256;-83
2021/01/18 07:42:42;;;;;;;172.48;35.40;;;2.00;98.30;;;;;;5155330;23;20268;-83
2021/01/18 07:44:45;;;;;;;115.38;25.55;;;2.00;98.30;;;;;;5153821;23;20288;-83
2021/01/18 07:47:00;;;;;;;154.40;30.42;;;2.10;98.30;;;;;;5155644;23;20213;-83
2021/01/18 07:49:44;;;;;;;201.00;36.67;;;2.10;98.30;;;;;;5151705;23;20206;-84
2021/01/18 07:51:50;;;;;;;217.63;40.22;;;2.10;98.30;;;;;;5142722;23;20759;-83
2021/01/18 07:54:01;;;;;;;107.78;25.25;;;2.10;98.30;;;;;;5150152;23;20202;-82
2021/01/18 07:56:04;;;;;;;88.60;24.52;;;2.10;98.30;;;;;;5151677;23;20201;-81
2021/01/18 07:58:16;;;;;;;131.90;29.23;;;2.10;98.30;;;;;;5151522;23;20758;-82
2021/01/18 08:00:30;;;;;;;138.80;30.67;;;2.10;98.30;;;;;;5153014;23;20611;-82
2021/01/18 08:02:32;;;;;;;129.75;29.08;;;2.10;98.30;;;;;;5153832;23;20205;-83
2021/01/18 08:04:39;;;;;;;95.00;22.23;;;2.20;98.30;;;;;;5152340;23;20202;-82
2021/01/18 08:07:02;;;;;;;222.70;33.97;;;2.20;98.30;;;;;;5152227;23;20205;-82
2021/01/18 08:09:25;;;;;;;198.63;33.33;;;2.20;98.30;;;;;;5151300;23;20205;-82
2021/01/18 08:11:29;;;;;;;179.30;33.38;;;2.20;98.30;;;;;;5149572;23;20201;-82
2021/01/18 08:13:34;;;;;;;111.50;25.42;;;2.20;98.30;;;;;;5148102;23;20653;-82
2021/01/18 08:15:38;;;;;;;163.23;30.63;;;2.20;98.30;;;;;;5148636;23;20201;-82
2021/01/18 08:17:40;;;;;;;106.53;24.98;;;2.20;98.30;;;;;;5147872;23;20233;-82
2021/01/18 08:20:11;;;;;;;258.38;45.75;;;2.30;98.30;;;;;;5149174;23;20208;-82
2021/01/18 08:22:34;;;;;;;128.30;26.58;;;2.30;98.30;;;;;;5141518;23;20205;-82
2021/01/18 08:24:56;;;;;;;95.93;24.33;;;2.30;98.30;;;;;;5149112;23;20537;-82
2021/01/18 08:27:00;;;;;;;117.45;25.85;;;2.30;98.30;;;;;;5140952;23;20716;-82
2021/01/18 08:29:02;;;;;;;118.75;26.23;;;2.40;98.30;;;;;;5149268;23;20225;-82
2021/01/18 08:31:23;;;;;;;107.65;25.70;;;2.40;98.30;;;;;;5149647;23;20202;-82
2021/01/18 08:33:27;;;;;;;55.95;22.40;;;2.40;98.30;;;;;;5149574;23;20233;-82
2021/01/18 08:38:28;;;;;;;65.63;24.25;;;2.50;98.30;;;;;;5141088;23;20211;-82
2021/01/18 08:40:37;;;;;;;59.00;21.55;;;2.50;98.30;;;;;;5148688;23;20205;-82
2021/01/18 08:42:44;;;;;;;82.30;22.35;;;2.50;98.30;;;;;;5149835;23;20228;-82
2021/01/18 08:44:47;;;;;;;83.57;25.30;;;2.60;98.30;;;;;;5149035;23;20533;-82
2021/01/18 08:46:53;;;;;;;72.20;25.33;;;2.60;98.30;;;;;;5150657;23;20206;-82
2021/01/18 08:49:19;;;;;;;83.68;24.25;;;2.60;98.30;;;;;;5151907;23;20209;-83
2021/01/18 08:51:46;;;;;;;72.57;22.33;;;2.60;98.30;;;;;;5152575;23;20273;-82
2021/01/18 08:53:51;;;;;;;65.00;22.27;;;2.60;98.30;;;;;;5148754;23;20206;-82
2021/01/18 08:55:58;;;;;;;61.90;25.45;;;2.70;98.30;;;;;;5150767;23;20201;-82
2021/01/18 08:58:02;;;;;;;61.58;23.60;;;2.70;98.30;;;;;;5151983;23;20608;-82
2021/01/18 09:00:13;;;;;;;63.13;22.58;;;2.70;98.30;;;;;;5151712;23;20724;-82
2021/01/18 09:02:18;;;;;;;68.00;22.52;;;2.80;98.30;;;;;;5152395;23;20201;-82
2021/01/18 09:04:24;;;;;;;57.72;22.88;;;2.80;98.30;;;;;;5153329;23;20210;-82
2021/01/18 09:06:28;;;;;;;64.40;24.17;;;2.80;98.30;;;;;;5152308;23;20614;-82
2021/01/18 09:08:33;;;;;;;56.85;22.77;;;2.80;98.30;;;;;;5152949;23;20642;-83
2021/01/18 09:10:37;;;;;;;56.67;22.30;;;2.80;98.30;;;;;;5153685;23;20247;-83
2021/01/18 09:12:43;;;;;;;60.63;19.20;;;2.80;98.30;;;;;;5152795;23;20950;-82
2021/01/18 09:14:47;;;;;;;79.63;28.85;;;2.80;98.30;;;;;;5152326;23;20518;-82
2021/01/18 09:16:49;;;;;;;53.25;21.67;;;2.90;98.30;;;;;;5152120;23;20876;-84
2021/01/18 09:18:56;;;;;;;64.45;22.23;;;2.90;98.30;;;;;;5152058;23;20210;-82
2021/01/18 09:21:01;;;;;;;61.38;22.20;;;2.90;98.30;;;;;;5152546;23;20256;-82
2021/01/18 09:23:05;;;;;;;55.63;22.33;;;2.90;98.30;;;;;;5152410;23;20205;-82
2021/01/18 09:25:27;;;;;;;68.15;24.52;;;2.90;98.30;;;;;;5152322;23;20205;-82
2021/01/18 09:27:32;;;;;;;57.95;21.20;;;3.00;98.30;;;;;;5153331;23;20279;-82
2021/01/18 09:29:37;;;;;;;51.13;22.23;;;3.00;98.30;;;;;;5153607;23;20202;-83
2021/01/18 09:31:40;;;;;;;57.53;20.95;;;3.00;98.30;;;;;;5153065;23;20205;-83
2021/01/18 09:33:43;;;;;;;44.40;19.20;;;3.00;98.30;;;;;;5150598;23;20292;-82
2021/01/18 09:35:47;;;;;;;55.15;22.52;;;3.00;98.30;;;;;;5150224;23;20201;-83
2021/01/18 09:37:51;;;;;;;47.15;21.10;;;3.00;98.30;;;;;;5149967;23;20273;-83
2021/01/18 09:40:14;;;;;;;52.90;21.45;;;3.10;98.30;;;;;;5150390;23;20498;-82
2021/01/18 09:42:33;;;;;;;43.33;19.45;;;3.10;98.30;;;;;;5144044;23;20232;-83
2021/01/18 09:44:39;;;;;;;46.90;20.60;;;3.10;98.30;;;;;;5152234;23;20210;-82
2021/01/18 09:46:43;;;;;;;50.22;21.65;;;3.10;98.30;;;;;;5152207;23;20209;-82
2021/01/18 09:48:49;;;;;;;55.67;21.15;;;3.10;98.30;;;;;;5152448;23;20261;-82
2021/01/18 09:51:00;;;;;;;30.55;14.98;;;3.10;98.30;;;;;;5152268;23;20228;-82
2021/01/18 09:53:05;;;;;;;54.15;22.67;;;3.20;98.30;;;;;;5152085;23;20221;-82
2021/01/18 09:55:14;;;;;;;46.47;22.02;;;3.20;98.30;;;;;;5145390;23;20829;-83
2021/01/18 09:57:19;;;;;;;47.22;20.63;;;3.20;98.30;;;;;;5149697;23;20202;-82
2021/01/18 09:59:24;;;;;;;67.10;24.95;;;3.20;98.30;;;;;;5149311;23;20209;-82
2021/01/18 10:01:32;;;;;;;56.80;21.52;;;3.30;98.30;;;;;;5151398;23;20529;-82
2021/01/18 10:03:36;;;;;;;48.95;22.67;;;3.30;98.30;;;;;;5150022;23;20225;-82
2021/01/18 10:05:41;;;;;;;48.90;21.98;;;3.40;98.30;;;;;;5142448;23;20256;-81
2021/01/18 10:07:52;;;;;;;53.60;23.17;;;3.40;98.30;;;;;;5150638;23;20202;-82
2021/01/18 10:09:55;;;;;;;53.28;19.10;;;3.40;98.30;;;;;;5151418;23;20244;-82
2021/01/18 10:12:00;;;;;;;43.20;17.40;;;3.40;98.30;;;;;;5151900;23;20285;-82
2021/01/18 10:14:05;;;;;;;52.15;23.63;;;3.40;98.30;;;;;;5151369;23;20284;-82
2021/01/18 10:16:13;;;;;;;52.05;21.98;;;3.40;98.30;;;;;;5152158;23;20208;-82
2021/01/18 10:18:29;;;;;;;51.28;20.90;;;3.40;98.30;;;;;;5143707;23;20247;-82
2021/01/18 10:20:31;;;;;;;34.65;16.30;;;3.40;98.30;;;;;;5152068;23;20567;-81
2021/01/18 10:22:37;;;;;;;50.58;22.30;;;3.40;98.30;;;;;;5151539;23;20208;-82
2021/01/18 10:24:40;;;;;;;36.30;16.63;;;3.40;98.30;;;;;;5151596;23;20812;-82
2021/01/18 10:26:44;;;;;;;46.05;19.85;;;3.40;98.30;;;;;;5152444;23;20260;-81
2021/01/18 10:28:52;;;;;;;37.50;18.30;;;3.40;98.30;;;;;;5152976;23;20206;-82
2021/01/18 10:30:54;;;;;;;42.72;18.35;;;3.40;98.30;;;;;;5151245;23;20280;-82
2021/01/18 10:32:58;;;;;;;43.90;17.20;;;3.40;98.30;;;;;;5143829;23;20213;-83
2021/01/18 10:35:21;;;;;;;38.00;16.70;;;3.50;98.30;;;;;;5150690;23;20206;-83
2021/01/18 10:37:28;;;;;;;40.95;18.15;;;3.40;98.30;;;;;;5151316;23;20202;-83
2021/01/18 10:39:32;;;;;;;43.28;17.20;;;3.40;98.30;;;;;;5150383;23;20217;-82
2021/01/18 10:41:44;;;;;;;36.13;15.48;;;3.50;98.30;;;;;;5152888;23;20205;-83
2021/01/18 10:43:52;;;;;;;50.72;18.88;;;3.50;98.30;;;;;;5153237;23;20229;-82
2021/01/18 10:45:54;;;;;;;41.17;14.25;;;3.50;98.30;;;;;;5153557;23;20517;-82
2021/01/18 10:47:58;;;;;;;38.45;13.88;;;3.50;98.30;;;;;;5153983;23;20206;-83
2021/01/18 10:50:01;;;;;;;34.88;14.43;;;3.50;98.30;;;;;;5152453;23;20289;-83
2021/01/18 10:52:06;;;;;;;37.10;15.05;;;3.60;98.30;;;;;;5153599;23;20221;-83
2021/01/18 10:54:08;;;;;;;29.98;14.15;;;3.50;98.30;;;;;;5154678;23;20202;-83
2021/01/18 10:56:22;;;;;;;37.95;18.30;;;3.50;98.30;;;;;;5155954;23;20305;-83
2021/01/18 10:58:29;;;;;;;41.85;17.42;;;3.60;98.30;;;;;;5156787;23;20252;-83
2021/01/18 11:00:32;;;;;;;42.17;17.65;;;3.50;98.30;;;;;;5157986;23;20232;-83
2021/01/18 11:02:36;;;;;;;46.17;18.13;;;3.50;98.30;;;;;;5151829;23;20840;-82
2021/01/18 11:04:44;;;;;;;37.17;15.70;;;3.50;98.30;;;;;;5144624;23;20201;-83
2021/01/18 11:06:46;;;;;;;41.72;19.10;;;3.60;98.30;;;;;;5152652;23;20287;-83
2021/01/18 11:08:57;;;;;;;42.22;17.15;;;3.60;98.30;;;;;;5144910;23;20206;-83
2021/01/18 11:11:15;;;;;;;31.90;15.70;;;3.60;98.30;;;;;;5153004;23;20210;-83
2021/01/18 11:13:26;;;;;;;34.22;15.35;;;3.60;98.30;;;;;;5153812;23;20312;-83
2021/01/18 11:15:34;;;;;;;43.70;17.25;;;3.60;98.30;;;;;;5145493;23;20288;-82
2021/01/18 11:17:37;;;;;;;31.27;15.65;;;3.60;98.30;;;;;;5145593;23;20221;-83
2021/01/18 11:19:40;;;;;;;35.45;13.80;;;3.60;98.30;;;;;;5154098;23;20555;-83
2021/01/18 11:21:44;;;;;;;32.17;14.65;;;3.60;98.30;;;;;;5153603;23;20206;-82
2021/01/18 11:23:47;;;;;;;31.33;14.73;;;3.60;98.30;;;;;;5154494;23;20530;-83
2021/01/18 11:25:51;;;;;;;32.35;14.50;;;3.60;98.30;;;;;;5153457;23;20442;-82
2021/01/18 11:28:07;;;;;;;42.65;14.48;;;3.60;98.30;;;;;;5153642;23;20205;-82
2021/01/18 11:30:10;;;;;;;35.67;17.80;;;3.60;98.30;;;;;;5152854;23;20201;-82
2021/01/18 11:32:19;;;;;;;33.72;16.40;;;3.60;98.30;;;;;;5153679;23;20198;-81
2021/01/18 11:34:21;;;;;;;37.63;18.85;;;3.70;98.30;;;;;;5151966;23;20319;-82
2021/01/18 11:36:25;;;;;;;41.55;20.20;;;3.70;98.30;;;;;;5145855;23;20213;-83
2021/01/18 11:38:28;;;;;;;34.35;15.93;;;3.70;98.30;;;;;;5154151;23;20537;-82
2021/01/18 11:40:30;;;;;;;30.95;14.95;;;3.70;98.30;;;;;;5153443;23;20272;-82
2021/01/18 11:42:33;;;;;;;35.65;16.30;;;3.70;98.30;;;;;;5154527;23;20205;-82
2021/01/18 11:44:35;;;;;;;32.88;17.30;;;3.70;98.30;;;;;;5153989;23;20536;-82
2021/01/18 11:46:38;;;;;;;44.22;20.80;;;3.80;98.30;;;;;;5153976;23;20267;-82
2021/01/18 11:48:52;;;;;;;38.17;16.83;;;3.80;98.30;;;;;;5154205;23;20217;-83
2021/01/18 11:50:55;;;;;;;40.55;19.00;;;3.80;98.30;;;;;;5145277;23;20206;-83
2021/01/18 11:52:59;;;;;;;42.58;23.25;;;3.80;98.30;;;;;;5145789;23;20410;-82
2021/01/18 11:55:04;;;;;;;40.10;19.65;;;3.80;98.30;;;;;;5152703;23;20204;-81
2021/01/18 11:57:06;;;;;;;47.28;22.75;;;3.90;98.30;;;;;;5142521;23;20754;-81
2021/01/18 11:59:13;;;;;;;58.75;25.38;;;3.90;98.30;;;;;;5151020;23;20264;-81
2021/01/18 12:01:15;;;;;;;50.63;22.67;;;3.90;98.30;;;;;;5150618;23;20228;-82
2021/01/18 12:03:18;;;;;;;43.83;22.23;;;3.90;98.30;;;;;;5150877;23;20700;-81
2021/01/18 12:05:25;;;;;;;50.25;20.23;;;3.90;98.30;;;;;;5152096;23;20216;-82